Time;durP1;ratioP1;P1;durP2;ratioP2;P2;SDS_P1;SDS_P2;PMS_P1;PMS_P2;Temp;Humidity;BMP_temperature;BMP_pressure;BME280_temperature;BME280_humidity;BME280_pressure;Samples;Min_cycle;Max_cycle;Signal;HPM_P1;HPM_P2
2023/08/10 00:00:15;;;;;;;2.83;1.40;;;14.60;99.90;;;;;;5037617;28;20029;-70
2023/08/10 00:02:42;;;;;;;5.15;1.52;;;14.50;99.90;;;;;;5035247;28;20026;-71
2023/08/10 00:05:09;;;;;;;2.40;1.30;;;14.50;99.90;;;;;;5036468;28;20088;-70
2023/08/10 00:07:36;;;;;;;2.67;1.33;;;14.60;99.90;;;;;;5032584;28;20463;-70
2023/08/10 00:10:03;;;;;;;1.95;1.40;;;14.60;99.90;;;;;;5028351;28;20025;-70
2023/08/10 00:12:29;;;;;;;4.70;1.30;;;14.60;99.90;;;;;;5030198;28;20033;-70
2023/08/10 00:14:54;;;;;;;2.63;1.70;;;14.60;99.90;;;;;;5034421;28;20425;-70
2023/08/10 00:17:20;;;;;;;3.20;1.97;;;14.60;99.90;;;;;;5027896;28;20048;-70
2023/08/10 00:19:46;;;;;;;1.50;1.27;;;14.60;99.90;;;;;;5027038;28;20427;-70
2023/08/10 00:22:13;;;;;;;5.07;2.20;;;14.50;99.90;;;;;;5029401;28;20064;-70
2023/08/10 00:24:38;;;;;;;;;;;14.50;99.90;;;;;;5034901;28;20029;-70
2023/08/10 00:27:06;;;;;;;3.50;1.00;;;14.50;99.90;;;;;;5034292;28;19913;-70
2023/08/10 00:29:32;;;;;;;3.13;1.33;;;14.50;99.90;;;;;;5029618;28;20036;-70
2023/08/10 00:31:58;;;;;;;5.40;2.15;;;14.50;99.90;;;;;;5024698;28;20487;-70
2023/08/10 00:34:23;;;;;;;3.17;1.33;;;14.50;99.90;;;;;;5032081;28;20057;-70
2023/08/10 00:36:49;;;;;;;2.10;1.33;;;14.50;99.90;;;;;;5028642;28;20080;-70
2023/08/10 00:39:15;;;;;;;1.57;1.07;;;14.50;99.90;;;;;;5022969;28;20038;-70
2023/08/10 00:41:41;;;;;;;4.53;1.23;;;14.50;99.90;;;;;;5024976;28;20034;-70
2023/08/10 00:44:07;;;;;;;3.95;1.38;;;14.50;99.90;;;;;;5022866;28;20047;-70
2023/08/10 00:46:33;;;;;;;1.43;1.10;;;14.50;99.90;;;;;;5028761;28;20034;-70
2023/08/10 00:48:59;;;;;;;2.03;1.33;;;14.50;99.90;;;;;;5025325;28;20036;-70
2023/08/10 00:51:25;;;;;;;3.33;1.15;;;14.50;99.90;;;;;;5031660;28;20030;-70
2023/08/10 00:53:51;;;;;;;3.80;1.47;;;14.50;99.90;;;;;;5028519;28;20048;-70
2023/08/10 00:56:17;;;;;;;5.22;1.40;;;14.40;99.90;;;;;;5027304;28;20948;-70
2023/08/10 00:58:44;;;;;;;4.80;1.38;;;14.40;99.90;;;;;;5025118;28;20431;-80
2023/08/10 01:01:10;;;;;;;2.90;1.70;;;14.40;99.90;;;;;;5024436;28;20166;-70
2023/08/10 01:03:35;;;;;;;2.33;1.63;;;14.40;99.90;;;;;;5026129;28;20434;-70
2023/08/10 01:06:16;;;;;;;8.77;1.70;;;14.40;99.90;;;;;;5023278;28;20437;-70
2023/08/10 01:08:54;;;;;;;8.35;1.67;;;14.50;99.90;;;;;;5025602;28;20333;-70
2023/08/10 01:11:44;;;;;;;10.20;2.35;;;14.40;99.90;;;;;;5028584;28;20459;-70
2023/08/10 01:14:15;;;;;;;7.53;1.65;;;14.50;99.90;;;;;;5027899;28;20030;-70
2023/08/10 01:16:42;;;;;;;5.13;1.10;;;14.40;99.90;;;;;;5046628;28;20104;-70
2023/08/10 01:19:22;;;;;;;5.53;1.35;;;14.50;99.90;;;;;;5024363;28;20025;-70
2023/08/10 01:22:00;;;;;;;5.38;1.33;;;14.50;99.90;;;;;;5026240;28;20060;-70
2023/08/10 01:24:32;;;;;;;2.08;1.25;;;14.50;99.90;;;;;;5028712;28;20049;-70
2023/08/10 01:26:58;;;;;;;3.17;1.27;;;14.50;99.90;;;;;;5032044;28;20025;-70
2023/08/10 01:29:24;;;;;;;2.50;1.50;;;14.50;99.90;;;;;;5027069;28;20121;-70
2023/08/10 01:31:50;;;;;;;3.30;1.50;;;14.40;99.90;;;;;;5021750;28;20125;-71
2023/08/10 01:34:16;;;;;;;4.15;1.42;;;14.40;99.90;;;;;;4981279;28;1154032;-70
2023/08/10 01:36:42;;;;;;;2.30;1.23;;;14.50;99.90;;;;;;5029014;28;20090;-70
2023/08/10 01:39:07;;;;;;;1.47;1.37;;;14.50;99.90;;;;;;5028155;28;20099;-70
2023/08/10 01:41:33;;;;;;;3.50;1.43;;;14.50;99.90;;;;;;5028421;28;20029;-70
2023/08/10 01:43:59;;;;;;;2.23;1.67;;;14.50;99.90;;;;;;5050670;28;20072;-70
2023/08/10 01:46:27;;;;;;;3.77;1.47;;;14.50;99.90;;;;;;5031540;28;20029;-70
2023/08/10 01:48:56;;;;;;;2.28;1.45;;;14.40;99.90;;;;;;5034551;28;20037;-70
2023/08/10 01:51:26;;;;;;;2.03;1.25;;;14.40;99.90;;;;;;5033124;28;20053;-70
2023/08/10 01:53:54;;;;;;;3.53;1.30;;;14.40;99.90;;;;;;5036963;28;20108;-70
2023/08/10 01:56:21;;;;;;;2.70;1.05;;;14.40;99.90;;;;;;5030636;28;20125;-71
2023/08/10 01:58:47;;;;;;;2.80;1.25;;;14.30;99.90;;;;;;5034387;28;20101;-70
2023/08/10 02:01:13;;;;;;;2.20;1.15;;;14.30;99.90;;;;;;5030456;28;20029;-70
2023/08/10 02:03:39;;;;;;;3.63;1.13;;;14.30;99.90;;;;;;5027890;28;20310;-70
2023/08/10 02:06:05;;;;;;;2.35;1.23;;;14.30;99.90;;;;;;5029303;28;20049;-70
2023/08/10 02:08:31;;;;;;;2.83;1.30;;;14.30;99.90;;;;;;5022602;28;20057;-70
2023/08/10 02:10:56;;;;;;;1.75;1.23;;;14.30;99.90;;;;;;5030035;28;20336;-71
2023/08/10 02:13:22;;;;;;;2.00;1.33;;;14.20;99.90;;;;;;5027874;28;20033;-70
2023/08/10 02:15:49;;;;;;;4.83;1.00;;;14.30;99.90;;;;;;5032764;28;20022;-70
2023/08/10 02:18:15;;;;;;;2.10;1.30;;;14.20;99.90;;;;;;5026765;28;20127;-70
2023/08/10 02:20:41;;;;;;;10.30;1.47;;;14.20;99.90;;;;;;5032383;28;20026;-70
2023/08/10 02:23:07;;;;;;;1.63;1.00;;;14.20;99.90;;;;;;5023563;28;20037;-70
2023/08/10 02:25:32;;;;;;;2.13;1.13;;;14.20;99.90;;;;;;5023092;28;20033;-70
2023/08/10 02:27:58;;;;;;;5.20;1.40;;;14.10;99.90;;;;;;5028727;28;20033;-70
2023/08/10 02:30:24;;;;;;;2.70;1.10;;;14.20;99.90;;;;;;5026953;28;20029;-70
2023/08/10 02:32:49;;;;;;;1.50;1.27;;;14.10;99.90;;;;;;5034784;28;20047;-70
2023/08/10 02:35:15;;;;;;;1.40;1.23;;;14.10;99.90;;;;;;5026965;28;20054;-70
2023/08/10 02:37:41;;;;;;;6.13;1.37;;;14.10;99.90;;;;;;5031986;28;20517;-70
2023/08/10 02:40:11;;;;;;;6.63;1.33;;;14.20;99.90;;;;;;5026272;28;20424;-70
2023/08/10 02:42:37;;;;;;;2.00;0.95;;;14.20;99.90;;;;;;5027446;28;20357;-70
2023/08/10 02:45:03;;;;;;;2.83;1.17;;;14.20;99.90;;;;;;5026162;28;20120;-70
2023/08/10 02:47:28;;;;;;;4.50;1.80;;;14.10;99.90;;;;;;5029087;28;20025;-70
2023/08/10 02:49:54;;;;;;;11.97;1.70;;;14.20;99.90;;;;;;5027342;28;20044;-70
2023/08/10 02:52:20;;;;;;;1.50;1.40;;;14.20;99.90;;;;;;5024774;28;20112;-70
2023/08/10 02:54:45;;;;;;;5.13;2.03;;;14.10;99.90;;;;;;5025632;28;20100;-70
2023/08/10 02:57:11;;;;;;;5.37;1.77;;;14.00;99.90;;;;;;5028480;28;20021;-70
2023/08/10 02:59:37;;;;;;;3.17;1.93;;;14.00;99.90;;;;;;5031753;28;20416;-70
2023/08/10 03:02:03;;;;;;;12.03;2.57;;;14.00;99.90;;;;;;5032371;28;20049;-70
2023/08/10 03:04:28;;;;;;;6.00;2.13;;;14.00;99.90;;;;;;5032631;28;20026;-70
2023/08/10 03:06:54;;;;;;;14.03;2.20;;;14.00;99.90;;;;;;5033030;28;20036;-70
2023/08/10 03:09:20;;;;;;;4.27;2.23;;;14.00;99.90;;;;;;5028731;28;20071;-70
2023/08/10 03:11:46;;;;;;;4.10;1.90;;;14.00;99.90;;;;;;5022110;28;20025;-70
2023/08/10 03:14:12;;;;;;;3.53;1.92;;;13.90;99.90;;;;;;5032959;28;20025;-70
2023/08/10 03:16:37;;;;;;;8.57;2.17;;;13.90;99.90;;;;;;5034026;28;20068;-70
2023/08/10 03:19:03;;;;;;;10.07;2.10;;;13.90;99.90;;;;;;5032460;28;20034;-70
2023/08/10 03:21:29;;;;;;;5.40;2.13;;;13.90;99.90;;;;;;5027070;28;20060;-70
2023/08/10 03:23:55;;;;;;;11.33;2.10;;;13.80;99.90;;;;;;5027376;28;20093;-70
2023/08/10 03:26:21;;;;;;;7.70;2.30;;;13.80;99.90;;;;;;5025965;28;20021;-70
2023/08/10 03:28:46;;;;;;;3.87;2.13;;;13.80;99.90;;;;;;5025939;28;20079;-71
2023/08/10 03:31:13;;;;;;;10.40;2.27;;;13.80;99.90;;;;;;5030874;28;20030;-70
2023/08/10 03:33:40;;;;;;;4.82;2.03;;;13.80;99.90;;;;;;5028145;28;20458;-70
2023/08/10 03:36:06;;;;;;;7.25;2.50;;;13.80;99.90;;;;;;5032131;28;20076;-70
2023/08/10 03:38:32;;;;;;;5.43;1.73;;;13.80;99.90;;;;;;5028734;28;20022;-70
2023/08/10 03:40:57;;;;;;;4.90;1.80;;;13.80;99.90;;;;;;5028942;28;20033;-70
2023/08/10 03:43:23;;;;;;;6.63;2.50;;;13.80;99.90;;;;;;5030052;28;20075;-70
2023/08/10 03:45:49;;;;;;;2.77;1.50;;;13.80;99.90;;;;;;5031116;28;20026;-70
2023/08/10 03:48:15;;;;;;;2.83;1.70;;;13.70;99.90;;;;;;5028843;28;20028;-70
2023/08/10 03:50:40;;;;;;;4.30;1.70;;;13.70;99.90;;;;;;5032091;28;20312;-70
2023/08/10 03:53:06;;;;;;;3.20;1.80;;;13.70;99.90;;;;;;5024831;28;20167;-70
2023/08/10 03:55:32;;;;;;;1.97;1.33;;;13.70;99.90;;;;;;5029633;28;20424;-70
2023/08/10 03:57:58;;;;;;;2.93;1.50;;;13.80;99.90;;;;;;5031016;28;20033;-70
2023/08/10 04:00:24;;;;;;;6.53;2.10;;;13.80;99.90;;;;;;5032395;28;20020;-70
2023/08/10 04:02:50;;;;;;;3.08;2.13;;;13.70;99.90;;;;;;5025506;28;20072;-70
2023/08/10 04:05:16;;;;;;;2.80;2.03;;;13.70;99.90;;;;;;5018313;28;20030;-70
2023/08/10 04:07:42;;;;;;;3.23;1.70;;;13.70;99.90;;;;;;5028021;28;20075;-70
2023/08/10 04:10:10;;;;;;;2.27;1.40;;;13.60;99.90;;;;;;5026889;28;20029;-70
2023/08/10 04:12:36;;;;;;;1.85;1.10;;;13.60;99.90;;;;;;5018704;28;20417;-79
2023/08/10 04:15:04;;;;;;;1.10;0.80;;;13.70;99.90;;;;;;5024550;28;20026;-70
2023/08/10 04:17:30;;;;;;;1.15;0.73;;;13.70;99.90;;;;;;5032121;28;20107;-70
2023/08/10 04:19:56;;;;;;;2.10;1.15;;;13.70;99.90;;;;;;5021326;28;20416;-70
2023/08/10 04:22:23;;;;;;;1.33;0.98;;;13.80;99.90;;;;;;5028452;28;20630;-70
2023/08/10 04:24:49;;;;;;;1.65;1.08;;;13.80;99.90;;;;;;5029162;28;20316;-70
2023/08/10 04:27:16;;;;;;;1.10;1.00;;;13.80;99.90;;;;;;5030333;28;20142;-70
2023/08/10 04:29:47;;;;;;;1.42;0.52;;;13.80;99.90;;;;;;5029373;28;20060;-79
2023/08/10 04:32:14;;;;;;;1.00;0.90;;;13.80;99.90;;;;;;5029842;28;20068;-70
2023/08/10 04:34:41;;;;;;;1.20;0.93;;;13.80;99.90;;;;;;5028049;28;20099;-70
2023/08/10 04:37:06;;;;;;;1.85;1.40;;;13.80;99.90;;;;;;5034568;28;20045;-70
2023/08/10 04:39:32;;;;;;;0.43;0.43;;;13.80;99.90;;;;;;5029881;28;20052;-70
2023/08/10 04:41:59;;;;;;;0.73;0.60;;;13.80;99.90;;;;;;5032777;28;20358;-70
2023/08/10 04:44:25;;;;;;;1.02;0.47;;;13.80;99.90;;;;;;5033952;28;20424;-70
2023/08/10 04:46:51;;;;;;;0.47;0.47;;;13.70;99.90;;;;;;5047914;28;20034;-71
2023/08/10 04:49:17;;;;;;;0.63;0.63;;;13.80;99.90;;;;;;5036963;28;20033;-70
2023/08/10 04:51:43;;;;;;;1.57;1.00;;;13.80;99.90;;;;;;5032490;28;20017;-70
2023/08/10 04:54:09;;;;;;;2.80;0.85;;;13.70;99.90;;;;;;5031282;28;20121;-70
2023/08/10 04:56:35;;;;;;;0.53;0.47;;;13.70;99.90;;;;;;5044933;28;20112;-70
2023/08/10 04:59:02;;;;;;;;;;;13.70;99.90;;;;;;5032396;28;20029;-70
2023/08/10 05:01:28;;;;;;;;;;;13.70;99.90;;;;;;5030952;28;19913;-70
2023/08/10 05:03:55;;;;;;;0.93;0.68;;;13.70;99.90;;;;;;5023779;28;19921;-69
2023/08/10 05:06:21;;;;;;;0.73;0.50;;;13.70;99.90;;;;;;5025874;28;20033;-70
2023/08/10 05:08:46;;;;;;;3.77;0.50;;;13.80;99.90;;;;;;5029194;28;20029;-70
2023/08/10 05:11:12;;;;;;;2.33;0.60;;;13.90;99.90;;;;;;5038277;28;20029;-69
2023/08/10 05:13:38;;;;;;;0.57;0.57;;;13.90;99.90;;;;;;5026884;28;20026;-69
2023/08/10 05:16:04;;;;;;;1.60;1.03;;;14.00;99.90;;;;;;5030229;28;20025;-69
2023/08/10 05:18:30;;;;;;;0.88;0.63;;;14.00;99.90;;;;;;5037696;28;20033;-69
2023/08/10 05:21:00;;;;;;;0.90;0.90;;;14.10;99.90;;;;;;5028708;28;20034;-69
2023/08/10 05:23:26;;;;;;;0.90;0.45;;;14.10;99.90;;;;;;5032420;28;20026;-70
2023/08/10 05:25:51;;;;;;;1.23;1.00;;;14.20;99.90;;;;;;5030862;28;20336;-70
2023/08/10 05:28:17;;;;;;;2.83;0.60;;;14.30;99.90;;;;;;5034395;28;20321;-70
2023/08/10 05:30:43;;;;;;;0.50;0.47;;;14.30;99.90;;;;;;5034505;28;20021;-70
2023/08/10 05:33:09;;;;;;;0.73;0.68;;;14.40;99.90;;;;;;5034967;28;20017;-70
2023/08/10 05:35:35;;;;;;;0.90;0.40;;;14.40;99.90;;;;;;5027408;28;20425;-70
2023/08/10 05:38:00;;;;;;;1.80;0.83;;;14.50;99.90;;;;;;5026349;28;20321;-70
2023/08/10 05:40:26;;;;;;;1.20;1.10;;;14.50;99.90;;;;;;5027288;28;20093;-70
2023/08/10 05:42:52;;;;;;;1.47;0.77;;;14.60;99.90;;;;;;5031488;28;20048;-70
2023/08/10 05:45:19;;;;;;;0.53;0.53;;;14.60;99.90;;;;;;5033487;28;20029;-70
2023/08/10 05:47:45;;;;;;;4.75;0.52;;;14.70;99.90;;;;;;5034593;28;20036;-80
2023/08/10 05:50:12;;;;;;;4.05;0.95;;;14.80;99.90;;;;;;5030653;28;20030;-70
2023/08/10 05:52:38;;;;;;;1.25;1.15;;;14.90;99.90;;;;;;5029784;28;20057;-70
2023/08/10 05:55:05;;;;;;;1.23;0.93;;;14.90;99.90;;;;;;5031442;28;20057;-70
2023/08/10 05:57:31;;;;;;;1.95;1.73;;;15.00;99.90;;;;;;5034329;28;20108;-70
2023/08/10 05:59:56;;;;;;;0.20;0.20;;;15.00;99.90;;;;;;5033778;28;20109;-70
2023/08/10 06:02:22;;;;;;;0.53;0.40;;;15.10;99.90;;;;;;5023266;28;20025;-70
2023/08/10 06:04:49;;;;;;;1.30;1.20;;;15.20;99.90;;;;;;5027848;28;20038;-70
2023/08/10 06:07:15;;;;;;;0.60;0.60;;;15.20;99.90;;;;;;5022260;28;20033;-69
2023/08/10 06:09:41;;;;;;;0.52;0.50;;;15.30;99.90;;;;;;5031182;28;20034;-70
2023/08/10 06:12:07;;;;;;;0.60;0.60;;;15.40;99.90;;;;;;5032708;28;20301;-78
2023/08/10 06:14:33;;;;;;;0.98;0.70;;;15.50;99.90;;;;;;5033083;28;20041;-69
2023/08/10 06:16:59;;;;;;;1.05;0.98;;;15.50;99.90;;;;;;5030501;28;20079;-70
2023/08/10 06:19:25;;;;;;;1.00;0.77;;;15.60;99.90;;;;;;5034787;28;20028;-69
2023/08/10 06:21:51;;;;;;;3.13;0.73;;;15.70;99.90;;;;;;5029221;28;20029;-69
2023/08/10 06:24:17;;;;;;;0.67;0.67;;;15.70;99.90;;;;;;5032052;28;20030;-70
2023/08/10 06:26:43;;;;;;;0.20;0.20;;;15.80;99.90;;;;;;5034906;28;20036;-69
2023/08/10 06:29:09;;;;;;;0.77;0.32;;;15.90;99.90;;;;;;5034462;28;20041;-69
2023/08/10 06:31:35;;;;;;;0.93;0.80;;;15.90;99.90;;;;;;5027486;28;20120;-78
2023/08/10 06:34:02;;;;;;;0.30;0.30;;;16.00;99.90;;;;;;5044066;28;20101;-70
2023/08/10 06:36:28;;;;;;;4.28;0.73;;;16.10;99.90;;;;;;5022890;28;20044;-70
2023/08/10 06:38:54;;;;;;;0.40;0.40;;;16.20;99.90;;;;;;5024299;28;20022;-69
2023/08/10 06:41:21;;;;;;;2.03;0.47;;;16.20;99.90;;;;;;5021967;28;20045;-70
2023/08/10 06:43:47;;;;;;;0.63;0.63;;;16.40;99.90;;;;;;5025041;28;20163;-69
2023/08/10 06:46:12;;;;;;;1.70;0.87;;;16.50;99.90;;;;;;5023532;28;20105;-69
2023/08/10 06:48:38;;;;;;;19.17;1.23;;;16.60;99.90;;;;;;5027748;28;20037;-69
2023/08/10 06:51:04;;;;;;;0.20;0.20;;;16.70;99.90;;;;;;5026555;28;20034;-69
2023/08/10 06:53:31;;;;;;;0.80;0.80;;;16.80;99.90;;;;;;5030114;28;20036;-69
2023/08/10 06:55:57;;;;;;;0.10;0.10;;;16.80;99.90;;;;;;5021990;28;20347;-71
2023/08/10 06:58:23;;;;;;;1.02;0.77;;;16.80;99.90;;;;;;5039840;28;21112;-69
2023/08/10 07:00:50;;;;;;;0.27;0.23;;;16.90;99.90;;;;;;5026260;28;20129;-70
2023/08/10 07:03:15;;;;;;;0.32;0.32;;;17.00;99.90;;;;;;5024632;28;20026;-69
2023/08/10 07:05:43;;;;;;;0.20;0.20;;;17.10;99.90;;;;;;5025761;28;20414;-69
2023/08/10 07:08:09;;;;;;;0.40;0.20;;;17.10;99.90;;;;;;5020077;28;20732;-69
2023/08/10 07:10:36;;;;;;;0.13;0.13;;;17.20;99.90;;;;;;5029102;28;20026;-69
2023/08/10 07:13:02;;;;;;;0.20;0.20;;;17.30;99.90;;;;;;5045530;28;20112;-69
2023/08/10 07:15:30;;;;;;;0.55;0.55;;;17.40;99.90;;;;;;5032311;28;20111;-70
2023/08/10 07:17:57;;;;;;;0.38;0.20;;;17.50;99.90;;;;;;5027737;28;20420;-70
2023/08/10 07:20:23;;;;;;;0.47;0.20;;;17.60;99.90;;;;;;5037323;28;20036;-69
2023/08/10 07:22:49;;;;;;;5.03;0.40;;;17.80;99.90;;;;;;5039524;28;20021;-69
2023/08/10 07:25:17;;;;;;;0.30;0.30;;;17.90;99.90;;;;;;5045049;28;20044;-70
2023/08/10 07:27:43;;;;;;;1.65;0.25;;;17.90;99.90;;;;;;5034453;28;20072;-70
2023/08/10 07:30:10;;;;;;;0.38;0.20;;;18.00;99.90;;;;;;5031384;28;20021;-70
2023/08/10 07:32:36;;;;;;;;;;;18.00;99.90;;;;;;5047545;28;20029;-78
2023/08/10 07:35:03;;;;;;;0.17;0.17;;;18.00;99.90;;;;;;5039362;28;19940;-70
2023/08/10 07:37:29;;;;;;;;;;;18.00;99.90;;;;;;5025373;28;20104;-69
2023/08/10 07:39:55;;;;;;;0.43;0.43;;;18.00;99.90;;;;;;5046975;28;20046;-70
2023/08/10 07:42:22;;;;;;;0.10;0.10;;;18.20;99.90;;;;;;5038029;28;20096;-70
2023/08/10 07:44:48;;;;;;;0.63;0.63;;;18.40;99.90;;;;;;5047462;28;20297;-70
2023/08/10 07:47:14;;;;;;;0.32;0.32;;;18.50;99.90;;;;;;5045558;28;20030;-69
2023/08/10 07:49:43;;;;;;;0.20;0.20;;;18.60;99.90;;;;;;5044514;28;20028;-70
2023/08/10 07:52:09;;;;;;;0.10;0.10;;;18.70;99.90;;;;;;5044799;28;20021;-70
2023/08/10 07:54:35;;;;;;;0.52;0.22;;;18.70;99.90;;;;;;5050823;28;20033;-70
2023/08/10 07:57:01;;;;;;;0.73;0.53;;;18.60;99.90;;;;;;5042335;28;20083;-69
2023/08/10 07:59:27;;;;;;;0.20;0.20;;;18.70;99.90;;;;;;5046336;28;20033;-70
2023/08/10 08:01:53;;;;;;;0.77;0.50;;;18.70;99.90;;;;;;5027793;28;20037;-70
2023/08/10 08:04:18;;;;;;;1.33;1.03;;;18.70;99.90;;;;;;5051535;28;20033;-69
2023/08/10 08:06:44;;;;;;;0.77;0.50;;;18.80;99.90;;;;;;5038672;28;20717;-69
2023/08/10 08:09:12;;;;;;;2.28;1.33;;;18.80;99.90;;;;;;5027864;28;20026;-69
2023/08/10 08:11:38;;;;;;;8.57;1.23;;;18.90;99.90;;;;;;5033283;28;20041;-69
2023/08/10 08:14:04;;;;;;;0.40;0.40;;;18.80;99.90;;;;;;5050445;28;20024;-69
2023/08/10 08:16:30;;;;;;;0.52;0.52;;;18.80;99.90;;;;;;5033103;28;20039;-69
2023/08/10 08:18:56;;;;;;;0.10;0.10;;;18.90;99.90;;;;;;5026821;28;20033;-69
2023/08/10 08:21:24;;;;;;;0.40;0.40;;;18.90;99.90;;;;;;5041249;28;20110;-69
2023/08/10 08:23:51;;;;;;;1.92;1.08;;;18.90;99.90;;;;;;5033921;28;20264;-70
2023/08/10 08:26:19;;;;;;;1.63;0.68;;;18.90;99.90;;;;;;5051922;28;20379;-70
2023/08/10 08:28:46;;;;;;;1.02;0.52;;;18.90;99.90;;;;;;5035199;28;20037;-69
2023/08/10 08:31:13;;;;;;;2.53;1.42;;;19.00;99.90;;;;;;5029550;28;20033;-69
2023/08/10 08:33:39;;;;;;;;;;;19.20;99.90;;;;;;5028813;28;20029;-69
2023/08/10 08:36:06;;;;;;;1.13;1.08;;;19.30;99.90;;;;;;5042262;28;19925;-69
2023/08/10 08:38:32;;;;;;;1.92;1.38;;;19.50;99.90;;;;;;5032375;28;20413;-69
2023/08/10 08:41:06;;;;;;;2.40;1.38;;;19.60;99.90;;;;;;5041736;28;20018;-69
2023/08/10 08:43:33;;;;;;;3.35;0.98;;;19.80;99.90;;;;;;5030817;28;20075;-70
2023/08/10 08:46:00;;;;;;;0.88;0.82;;;19.80;99.90;;;;;;5026242;28;20029;-69
2023/08/10 08:48:27;;;;;;;0.80;0.45;;;19.90;99.90;;;;;;5041694;28;20438;-78
2023/08/10 08:50:54;;;;;;;6.22;1.20;;;19.80;99.90;;;;;;5032820;28;20033;-69
2023/08/10 08:53:21;;;;;;;3.47;1.23;;;19.80;99.90;;;;;;5046639;28;20025;-69
2023/08/10 08:55:47;;;;;;;0.70;0.70;;;19.70;99.90;;;;;;5046030;28;20020;-69
2023/08/10 08:58:16;;;;;;;3.17;1.25;;;19.70;99.90;;;;;;5039120;28;20301;-76
2023/08/10 09:00:50;;;;;;;7.88;1.65;;;19.70;99.90;;;;;;5029644;28;20026;-75
2023/08/10 09:03:22;;;;;;;1.20;0.77;;;19.70;99.90;;;;;;5036517;28;20029;-77
2023/08/10 09:05:48;;;;;;;1.30;1.08;;;19.70;99.90;;;;;;5035241;28;20053;-70
2023/08/10 09:08:15;;;;;;;2.10;0.90;;;19.70;99.90;;;;;;5045075;28;20028;-70
2023/08/10 09:10:43;;;;;;;1.80;0.90;;;19.80;99.90;;;;;;5037893;28;20048;-69
2023/08/10 09:13:11;;;;;;;8.20;1.15;;;19.80;99.90;;;;;;5035695;28;20025;-70
2023/08/10 09:15:37;;;;;;;2.00;1.33;;;19.80;99.90;;;;;;5025879;28;20083;-69
2023/08/10 09:18:05;;;;;;;1.30;0.50;;;19.80;99.90;;;;;;5031284;28;20018;-69
2023/08/10 09:20:31;;;;;;;3.58;1.48;;;19.90;99.90;;;;;;5025130;28;20083;-69
2023/08/10 09:22:58;;;;;;;0.88;0.85;;;19.90;99.90;;;;;;5023832;28;20022;-69
2023/08/10 09:25:24;;;;;;;0.60;0.60;;;20.00;99.90;;;;;;5029077;28;20034;-69
2023/08/10 09:27:51;;;;;;;0.52;0.20;;;20.00;99.90;;;;;;5029470;28;20067;-69
2023/08/10 09:30:18;;;;;;;0.50;0.50;;;20.10;99.90;;;;;;5020657;28;20429;-70
2023/08/10 09:32:44;;;;;;;2.53;0.95;;;20.20;99.90;;;;;;5050850;28;20094;-70
2023/08/10 09:35:15;;;;;;;1.15;0.60;;;20.20;99.90;;;;;;5016955;28;20318;-70
2023/08/10 09:37:42;;;;;;;1.73;1.27;;;20.30;99.90;;;;;;5018020;28;20030;-69
2023/08/10 09:40:10;;;;;;;;;;;20.30;99.90;;;;;;5027042;28;20247;-70
2023/08/10 09:42:37;;;;;;;2.63;0.52;;;20.30;99.90;;;;;;5020509;28;19917;-70
2023/08/10 09:45:11;;;;;;;2.17;0.57;;;20.30;99.90;;;;;;5020087;28;20033;-78
2023/08/10 09:47:41;;;;;;;0.82;0.82;;;20.30;99.90;;;;;;5029419;28;20057;-69
2023/08/10 09:50:12;;;;;;;0.38;0.38;;;20.40;99.90;;;;;;5018854;28;20034;-69
2023/08/10 09:52:39;;;;;;;1.58;0.93;;;20.60;99.90;;;;;;5026605;28;20030;-70
2023/08/10 09:55:06;;;;;;;0.77;0.60;;;20.80;99.90;;;;;;5019163;28;20508;-69
2023/08/10 09:57:33;;;;;;;3.80;1.90;;;20.80;99.90;;;;;;5027722;28;20022;-69
2023/08/10 09:59:59;;;;;;;0.82;0.82;;;20.80;99.90;;;;;;5017650;28;20022;-69
2023/08/10 10:02:25;;;;;;;2.30;0.53;;;20.80;99.90;;;;;;5029608;28;20044;-70
2023/08/10 10:04:52;;;;;;;0.38;0.38;;;20.80;99.90;;;;;;5030577;28;20345;-70
2023/08/10 10:07:27;;;;;;;7.38;0.68;;;20.90;99.90;;;;;;5023118;28;20052;-72
2023/08/10 10:09:56;;;;;;;0.22;0.22;;;21.10;99.90;;;;;;5035719;28;20030;-69
2023/08/10 10:12:23;;;;;;;0.63;0.38;;;21.10;99.90;;;;;;5035380;28;20033;-76
2023/08/10 10:14:49;;;;;;;0.98;0.40;;;21.20;99.90;;;;;;5031375;28;20033;-69
2023/08/10 10:17:17;;;;;;;0.17;0.15;;;21.30;99.90;;;;;;5028800;28;20030;-69
2023/08/10 10:19:45;;;;;;;0.32;0.32;;;21.30;99.90;;;;;;5015493;28;20325;-75
2023/08/10 10:22:11;;;;;;;2.42;0.73;;;21.30;99.90;;;;;;5027860;28;20061;-70
2023/08/10 10:24:41;;;;;;;0.60;0.60;;;21.30;99.90;;;;;;5026068;28;20086;-74
2023/08/10 10:27:12;;;;;;;0.22;0.22;;;21.30;99.90;;;;;;5034492;28;20480;-76
2023/08/10 10:29:46;;;;;;;1.13;1.02;;;21.30;99.90;;;;;;5031871;28;20028;-75
2023/08/10 10:32:18;;;;;;;0.20;0.10;;;21.20;99.90;;;;;;5032496;28;20033;-77
2023/08/10 10:34:45;;;;;;;0.25;0.20;;;21.10;99.90;;;;;;5034943;28;20304;-76
2023/08/10 10:37:20;;;;;;;0.22;0.20;;;21.00;99.90;;;;;;5026352;28;20065;-70
2023/08/10 10:39:49;;;;;;;0.30;0.30;;;21.00;99.90;;;;;;5030370;28;20025;-76
2023/08/10 10:42:17;;;;;;;0.80;0.80;;;21.10;99.90;;;;;;5028359;28;20577;-78
2023/08/10 10:45:14;;;;;;;1.65;0.60;;;21.20;99.90;;;;;;5033576;28;20121;-75
2023/08/10 10:47:50;;;;;;;0.22;0.22;;;21.10;99.90;;;;;;5031296;28;20428;-76
2023/08/10 10:50:22;;;;;;;0.75;0.40;;;21.10;99.90;;;;;;5034668;28;20360;-69
2023/08/10 10:53:15;;;;;;;0.17;0.17;;;21.10;99.90;;;;;;5033084;28;20069;-70
2023/08/10 10:55:43;;;;;;;0.30;0.30;;;21.10;99.90;;;;;;5027675;28;20073;-69
2023/08/10 10:58:11;;;;;;;2.75;0.65;;;21.20;99.90;;;;;;5023072;28;20117;-69
2023/08/10 11:00:38;;;;;;;0.77;0.35;;;21.20;99.90;;;;;;5027233;28;20481;-70
2023/08/10 11:03:05;;;;;;;0.68;0.47;;;21.10;99.90;;;;;;5034649;28;20036;-75
2023/08/10 11:05:31;;;;;;;1.25;0.65;;;21.20;99.90;;;;;;5028707;28;20429;-73
2023/08/10 11:08:05;;;;;;;1.65;0.30;;;21.20;99.90;;;;;;5033436;28;20152;-74
2023/08/10 11:10:35;;;;;;;0.75;0.45;;;21.20;99.90;;;;;;5015718;28;20033;-69
2023/08/10 11:13:03;;;;;;;0.32;0.30;;;21.10;99.90;;;;;;5029726;28;20068;-69
2023/08/10 11:15:29;;;;;;;0.43;0.40;;;21.10;99.90;;;;;;5034521;28;20034;-69
2023/08/10 11:17:55;;;;;;;1.83;0.65;;;21.10;99.90;;;;;;5033582;28;20086;-76
2023/08/10 11:20:21;;;;;;;0.40;0.40;;;21.20;99.90;;;;;;5024049;28;20041;-69
2023/08/10 11:22:51;;;;;;;0.43;0.43;;;21.30;99.90;;;;;;5033861;28;20416;-69
2023/08/10 11:25:24;;;;;;;0.63;0.43;;;21.40;99.90;;;;;;5037797;28;20025;-69
2023/08/10 11:27:52;;;;;;;5.15;0.70;;;21.50;99.90;;;;;;5026405;28;20511;-70
2023/08/10 11:30:20;;;;;;;0.80;0.80;;;21.50;99.90;;;;;;5025932;28;20334;-69
2023/08/10 11:32:47;;;;;;;7.03;0.95;;;21.60;99.90;;;;;;5036194;28;20083;-69
2023/08/10 11:35:17;;;;;;;1.35;0.70;;;21.60;99.90;;;;;;5038478;28;20374;-69
2023/08/10 11:37:43;;;;;;;0.30;0.30;;;21.70;99.90;;;;;;5028122;28;20029;-70
2023/08/10 11:40:13;;;;;;;0.85;0.77;;;21.70;99.90;;;;;;5053660;28;20017;-69
2023/08/10 11:42:42;;;;;;;2.47;0.47;;;21.60;99.90;;;;;;5025308;28;20137;-70
2023/08/10 11:45:17;;;;;;;4.90;1.35;;;21.70;99.90;;;;;;5051777;28;20032;-70
2023/08/10 11:47:45;;;;;;;0.43;0.40;;;21.80;99.90;;;;;;5038328;28;20034;-69
2023/08/10 11:50:13;;;;;;;1.65;1.10;;;21.80;99.90;;;;;;5033895;28;20029;-69
2023/08/10 11:52:40;;;;;;;1.13;0.90;;;21.80;99.90;;;;;;5038153;28;20439;-69
2023/08/10 11:55:13;;;;;;;0.80;0.55;;;21.80;99.90;;;;;;5036856;28;20021;-69
2023/08/10 11:57:42;;;;;;;2.33;0.75;;;21.90;99.90;;;;;;5039537;28;20030;-69
2023/08/10 12:00:22;;;;;;;0.82;0.80;;;21.90;99.90;;;;;;5022306;28;20096;-69
2023/08/10 12:03:01;;;;;;;2.50;1.60;;;22.00;99.90;;;;;;5044484;28;20036;-77
2023/08/10 12:05:36;;;;;;;0.40;0.40;;;22.10;99.90;;;;;;5040365;28;20373;-76
2023/08/10 12:08:07;;;;;;;0.22;0.22;;;22.10;99.90;;;;;;5044076;28;20029;-70
2023/08/10 12:10:37;;;;;;;2.20;0.75;;;22.20;99.90;;;;;;5034601;28;20036;-76
2023/08/10 12:13:05;;;;;;;1.52;0.32;;;22.30;99.90;;;;;;5050641;28;20061;-69
2023/08/10 12:15:32;;;;;;;0.30;0.30;;;22.30;99.90;;;;;;5033624;28;20063;-75
2023/08/10 12:17:58;;;;;;;;;;;22.40;99.90;;;;;;5035572;28;20032;-76
2023/08/10 12:20:24;;;;;;;3.88;0.73;;;22.40;99.90;;;;;;5033580;28;20316;-69
2023/08/10 12:22:50;;;;;;;2.00;0.45;;;22.40;99.90;;;;;;5035008;28;20455;-69
2023/08/10 12:25:17;;;;;;;0.90;0.57;;;22.40;99.90;;;;;;5028645;28;20033;-71
2023/08/10 12:27:43;;;;;;;0.88;0.50;;;22.40;99.90;;;;;;5025577;28;20079;-75
2023/08/10 12:30:09;;;;;;;2.27;0.80;;;22.40;99.90;;;;;;5038168;28;20034;-70
2023/08/10 12:32:35;;;;;;;1.00;0.60;;;22.50;99.90;;;;;;5023042;28;20546;-76
2023/08/10 12:35:01;;;;;;;0.77;0.77;;;22.60;99.90;;;;;;5028590;28;20052;-69
2023/08/10 12:37:27;;;;;;;2.20;1.00;;;22.70;99.90;;;;;;5025286;28;20045;-69
2023/08/10 12:39:54;;;;;;;2.33;0.50;;;22.60;99.90;;;;;;5049575;28;20117;-70
2023/08/10 12:42:19;;;;;;;;;;;22.50;99.90;;;;;;5038128;28;20030;-70
2023/08/10 12:44:45;;;;;;;0.65;0.40;;;22.60;99.90;;;;;;5032464;28;19933;-69
2023/08/10 12:47:11;;;;;;;0.45;0.35;;;22.60;99.90;;;;;;5047024;28;20030;-69